Overton, Nevada Weather observations

Data are for observation ending at time listed.
 Day   Time    Ave.   Ave.  Ave.  Vector   Max.   Stn.    Total    Solar   Ave.  
  of    of     Air    Rel.  Wind   Wind    Wind   Baro.  Precip.   Rad.    Soil  
Year   Day     Temp.  Hum.  Speed  Dir.    Gust   Pres.                    Temp. 
2026   (PST)    F      %     mph   deg.    mph     mb.     in.     W/m2     F   
------------------------------------------------------------------------------
 126    0:00   67.6    27    2.6   130      7.3   963.2    0.00       0    70.8
 126    0:10   67.2    28    2.4   125      6.0   963.2    0.00       0    70.5
 126    0:20   67.2    27    2.6   118      5.6   963.2    0.00       0    70.4
 126    0:30   67.2    27    2.8   113      6.4   963.2    0.00       0    70.3
 126    0:40   67.2    27    3.0   114      7.3   963.2    0.00       0    70.2
 126    0:50   67.2    26    2.8   122      7.7   963.2    0.00       0    70.1
 126    1:00   67.4    26    2.5   134      5.8   963.2    0.00       0    70.0
 126    1:10   67.5    26    3.2   137      8.6   963.2    0.00       0    69.9
 126    1:20   67.5    25    3.5   142      7.5   963.3    0.00       0    69.9
 126    1:30   67.1    26    2.7   156      6.4   963.4    0.00       0    69.7
 126    1:40   67.2    25    2.5   151      6.2   963.6    0.00       0    69.6
 126    1:50   67.4    25    2.7   143      6.9   963.6    0.00       0    69.5
 126    2:00   67.3    26    1.9   127      7.1   963.7    0.00       0    69.4
 126    2:10   66.4    27    0.8   105      3.1   963.9    0.00       0    68.9
 126    2:20   66.1    28    2.5   126      6.1   964.0    0.00       0    68.8
 126    2:30   65.6    29    2.6   123      5.6   964.1    0.00       0    68.6
 126    2:40   65.5    29    2.8   132      6.4   964.1    0.00       0    68.5
 126    2:50   65.6    29    2.5   139      6.4   964.2    0.00       0    68.5
 126    3:00   65.2    30    2.1   147      5.9   964.3    0.00       0    68.3
 126    3:10   64.7    31    2.7   152      5.3   964.4    0.00       0    68.1
 126    3:20   64.4    32    2.8   155      5.4   964.4    0.00       0    67.9
 126    3:30   63.9    32    2.2   158      4.7   964.5    0.00       0    67.7
 126    3:40   63.5    33    2.3   156      4.5   964.6    0.00       0    67.5
 126    3:50   63.5    33    1.6   132      3.2   964.7    0.00       0    67.2
 126    4:00   63.5    33    1.5   150      4.1   964.7    0.00       0    67.1
 126    4:10   62.1    34    1.2   164      3.8   964.7    0.00       0    66.3
 126    4:20   56.1    42    1.3   310      2.9   964.8    0.00       0    64.2
 126    4:30   55.2    43    1.3   292      3.3   964.8    0.00       1    64.3
 126    4:40   55.5    40    1.5   302      2.7   964.8    0.00       3    63.9
 126    4:50   54.1    45    1.3   314      3.2   964.8    0.00       8    63.4
 126    5:00   54.5    45    0.9   322      2.1   964.9    0.00      18    63.6
 126    5:10   53.6    49    1.7   331      2.3   965.1    0.00      51    64.9
 126    5:20   54.4    48    2.1   338      3.7   965.2    0.00      77    66.6
 126    5:30   55.3    46    2.6   335      3.9   965.5    0.00     105    68.2
 126    5:40   56.7    44    3.3   320      4.5   965.8    0.00     134    69.6
 126    5:50   59.1    39    2.5   286      4.3   966.1    0.00     166    72.9
 126    6:00   60.9    36    1.8   304      3.9   966.5    0.00     198    74.1
 126    6:10   63.1    33    1.5   292      4.2   966.7    0.00     232    76.1
 126    6:20   64.0    32    2.5   318      4.0   967.0    0.00     267    75.7
 126    6:30   65.1    32    1.8   348      2.9   967.2    0.00     302    75.5
 126    6:40   67.0    30    0.9   314      3.0   967.5    0.00     338    78.5
 126    6:50   67.6    28    1.6   275      3.2   967.7    0.00     374    81.4
 126    7:00   68.7    27    0.7   220      2.4   967.9    0.00     409    84.0
 126    7:10   70.4    26    0.9   249      2.8   968.1    0.00     444    84.8
 126    7:20   70.8    25    1.0   174      3.6   968.4    0.00     479    82.7
 126    7:30   71.6    24    1.0   261      2.9   968.5    0.00     511    85.0
 126    7:40   72.0    24    0.9   181      3.1   968.7    0.00     544    87.1
 126    7:50   72.1    24    1.6   134      4.0   968.8    0.00     578    88.9
 126    8:00   72.5    24    1.2   216      4.1   968.9    0.00     608    91.4
 126    8:10   73.0    24    2.3   241      5.0   969.0    0.00     639    93.3
 126    8:20   73.7    23    2.2   191      5.7   969.2    0.00     669    95.4
 126    8:30   73.4    23    3.2   205      6.4   969.3    0.00     699    96.9
 126    8:40   73.6    23    3.0   233      5.5   969.3    0.00     726    97.6
 126    8:50   74.1    22    2.5   178      5.5   969.3    0.00     753    99.0
 126    9:00   75.1    22    2.4   126      5.3   969.3    0.00     779    98.3
 126    9:10   75.7    21    2.0   167      6.1   969.4    0.00     804    101.8
 126    9:20   76.5    20    1.4   103      4.0   969.4    0.00     826    101.8
 126    9:30   77.1    20    2.7   138      7.2   969.5    0.00     848    102.9
 126    9:40   77.4    20    1.3   295      4.4   969.6    0.00     870    103.2
 126    9:50   77.7    20    2.3   181      5.1   969.6    0.00     890    106.1
 126   10:00   78.6    19    2.7    11      5.9   969.6    0.00     905    103.2
 126   10:10   79.5    18    2.0    60      8.1   969.5    0.00     921    103.6
 126   10:20   78.6    19    4.8    52      8.6   969.6    0.00     934    100.7
 126   10:30   79.2    18    3.6    54      8.5   969.5    0.00     944    101.3
 126   10:40   80.1    18    3.7   338      7.7   969.4    0.00     954    100.2
 126   10:50   80.1    18    4.0    86      8.3   969.4    0.00     963    102.3
 126   11:00   80.1    18    2.4    72      6.4   969.3    0.00     946    101.9
 126   11:10   80.8    18    5.1    19      8.9   969.2    0.00     974    100.4
 126   11:20   81.0    18    4.8   336      8.4   969.1    0.00     977    100.4
 126   11:30   81.6    17    2.8   330      6.8   968.9    0.00     980    101.3
 126   11:40   82.2    17    2.0   346      5.5   968.9    0.00     981    103.2
 126   11:50   82.3    17    4.0    82      8.7   968.8    0.00     979    102.3
 126   12:00   82.7    16    2.9    37      7.3   968.7    0.00     974    102.5
 126   12:10   83.5    16    2.4    62      7.0   968.6    0.00     968    102.8
 126   12:20   83.5    16    2.4   118      6.2   968.5    0.00     959    104.0
 126   12:30   83.4    16    2.9    25      6.8   968.5    0.00     949    99.5
 126   12:40   84.4    15    4.5   350      8.1   968.3    0.00     937    98.5
 126   12:50   84.3    15    3.0   319      6.3   968.3    0.00     925    97.2
 126   13:00   85.0    14    1.8   321      6.3   968.2    0.00     911    97.0
 126   13:10   86.2    14    2.4    96      6.0   968.2    0.00     896    96.4
 126   13:20   85.7    14    2.7   115      6.0   968.2    0.00     877    95.7

Return to Overton, Nevada graphs page.


Western Regional Climate Center,wrcc@dri.edu